Urb Juan Mendoza, Puerto Rico
Current Conditions -  °F | °C
As of 10:26 AM on Saturday 22 Nov 2014 (Local Time) from TJNR Reporting Station
Light Rain Light Rain  
Wind Chill: 79°   Ceiling: 3100
Heat Index: 82°   Visibility: 7mi
Dew Point: 74°   Wind: 8mph
Humidity: 84%   Direction: 80°E
Pressure: 30.08"   Gusts: NA
Location:  18.2147°N, 65.7358°W
Report Text: TJNR 221426Z AUTO 08007KT 7SM -RA SCT021 BKN031 BKN038 26/23 A3008 RMK AO2 RAB06 P0003 T02610233 $
Loading
Personal Weather Stations






























Interactive Weather Map New forecast layout! Learn more

10-Day Weather Forecast

Advertisements
Track Severe Weather on mobile